createdAt,value
2022-08-16T03:17:22.134Z,17.14
2022-08-16T03:20:38.674Z,17.16
2022-08-16T03:23:53.106Z,17.20
2022-08-16T03:27:08.675Z,17.21
2022-08-16T03:30:24.870Z,17.17
2022-08-16T03:33:42.758Z,17.12
2022-08-16T03:36:52.658Z,17.12
2022-08-16T03:40:06.278Z,17.04
2022-08-16T03:43:20.562Z,17.07
2022-08-16T03:46:45.123Z,17.12
2022-08-16T03:50:25.878Z,17.11
2022-08-16T03:53:38.444Z,17.01
2022-08-16T03:56:57.887Z,16.96
2022-08-16T04:00:35.409Z,16.97
2022-08-16T04:03:47.716Z,16.96
2022-08-16T04:07:06.958Z,16.93
2022-08-16T04:10:36.179Z,16.87
2022-08-16T04:14:00.533Z,16.80
2022-08-16T04:17:20.644Z,16.76
2022-08-16T04:20:34.082Z,16.72
2022-08-16T04:23:49.642Z,16.63
2022-08-16T04:27:04.740Z,16.62
2022-08-16T04:30:31.957Z,16.65
2022-08-16T04:33:50.533Z,16.64
2022-08-16T04:37:03.378Z,16.60
2022-08-16T04:40:21.534Z,16.64
2022-08-16T04:43:33.263Z,16.62
2022-08-16T04:47:02.688Z,16.62
2022-08-16T04:50:18.811Z,16.68
2022-08-16T04:53:49.603Z,16.72
2022-08-16T04:57:03.569Z,16.73
2022-08-16T05:00:30.867Z,16.70
2022-08-16T06:01:05.867Z,17.85
2022-08-16T06:04:35.403Z,17.93
2022-08-16T06:07:58.577Z,18.05
2022-08-16T06:11:14.966Z,18.22
2022-08-16T06:14:31.080Z,18.35
2022-08-16T06:17:51.715Z,18.46
2022-08-16T06:21:05.338Z,18.56
2022-08-16T06:24:55.164Z,18.68
2022-08-16T06:27:57.497Z,18.85
2022-08-16T06:31:13.027Z,19.03
2022-08-16T06:34:55.494Z,19.28
2022-08-16T06:38:01.027Z,19.42
2022-08-16T06:41:14.020Z,19.57
2022-08-16T06:44:27.032Z,19.76
2022-08-16T06:47:53.790Z,19.96
2022-08-16T06:51:11.822Z,20.15
2022-08-16T06:54:24.918Z,20.31
2022-08-16T06:57:39.787Z,20.50
2022-08-16T07:00:50.577Z,20.77
2022-08-16T07:04:01.980Z,20.87
2022-08-16T07:07:21.387Z,21.07
2022-08-16T07:10:32.887Z,21.21
2022-08-16T07:14:00.556Z,21.40
2022-08-16T07:17:21.549Z,21.81
2022-08-16T07:20:47.708Z,22.17
2022-08-16T07:24:30.344Z,22.31
2022-08-16T07:27:49.426Z,22.34
2022-08-16T07:31:13.181Z,22.48
2022-08-16T07:34:35.428Z,22.67
2022-08-16T07:37:46.820Z,22.74
2022-08-16T07:41:09.815Z,22.80
2022-08-16T07:44:22.846Z,22.99
2022-08-16T07:47:37.534Z,23.23
2022-08-16T07:50:55.741Z,23.47
2022-08-16T07:54:12.649Z,23.70
2022-08-16T07:57:57.958Z,24.09
2022-08-16T08:01:15.208Z,24.51
2022-08-16T08:04:37.116Z,24.70
2022-08-16T08:07:47.848Z,24.89
2022-08-16T08:11:09.087Z,25.15
2022-08-16T08:14:29.488Z,25.45
2022-08-16T08:17:42.637Z,25.60
2022-08-16T08:20:59.321Z,25.17
2022-08-16T08:24:15.155Z,24.88
2022-08-16T08:27:25.862Z,24.51
2022-08-16T08:30:51.739Z,24.28
2022-08-16T08:34:12.819Z,24.06
2022-08-16T08:37:23.394Z,23.88
2022-08-16T08:40:39.839Z,23.69
2022-08-16T08:43:54.560Z,23.93
2022-08-16T08:47:11.089Z,23.84
2022-08-16T08:50:32.180Z,23.78
2022-08-16T08:53:43.600Z,24.60
2022-08-16T08:56:53.892Z,25.73
2022-08-16T09:00:27.001Z,26.88
2022-08-16T09:03:43.570Z,27.74
2022-08-16T09:06:54.183Z,28.52
2022-08-16T09:10:20.455Z,28.74
2022-08-16T09:13:33.193Z,29.46
2022-08-16T09:17:01.494Z,29.97
2022-08-16T09:20:16.814Z,30.38
2022-08-16T09:23:27.617Z,30.51
2022-08-16T09:26:45.984Z,30.70
2022-08-16T09:30:00.009Z,30.99
2022-08-16T09:33:11.321Z,31.25
2022-08-16T09:36:31.855Z,30.65
2022-08-16T09:39:44.908Z,29.71
2022-08-16T09:42:59.031Z,28.87
2022-08-16T09:46:49.182Z,28.32
2022-08-16T09:49:41.122Z,27.89
2022-08-16T09:52:52.367Z,27.55
2022-08-16T09:56:11.526Z,27.31
2022-08-16T09:59:23.413Z,26.87
2022-08-16T10:02:44.394Z,26.74
2022-08-16T10:05:58.634Z,26.56
2022-08-16T10:09:15.769Z,26.55
2022-08-16T10:12:42.142Z,27.54
2022-08-16T10:15:59.999Z,27.88
2022-08-16T10:19:09.870Z,28.01
2022-08-16T10:22:23.194Z,28.46
2022-08-16T10:27:17.253Z,29.02
2022-08-16T10:29:10.730Z,29.35
2022-08-16T10:32:21.236Z,29.15
2022-08-16T10:35:33.080Z,29.28
2022-08-16T10:38:43.621Z,29.55
2022-08-16T10:41:55.832Z,29.87
2022-08-16T10:45:08.583Z,29.56
2022-08-16T10:48:24.034Z,29.28
2022-08-16T10:52:01.566Z,28.85
2022-08-16T10:58:48.364Z,28.49
2022-08-16T11:12:34.027Z,28.03
2022-08-16T11:15:54.390Z,27.75
2022-08-16T11:19:12.200Z,27.54
2022-08-16T11:22:42.149Z,27.36
2022-08-16T11:26:06.581Z,27.29
2022-08-16T11:29:26.803Z,27.16
2022-08-16T11:32:38.643Z,27.16
2022-08-16T11:39:20.296Z,27.11
2022-08-16T11:42:34.351Z,27.25
2022-08-16T11:45:54.162Z,28.02
2022-08-16T11:49:11.265Z,28.64
2022-08-16T11:52:24.830Z,28.78
2022-08-16T11:55:38.769Z,28.59
2022-08-16T11:58:51.726Z,28.29
2022-08-16T12:02:32.395Z,28.07
2022-08-16T12:05:46.988Z,27.87
2022-08-16T12:09:02.380Z,27.73
2022-08-16T12:12:15.783Z,27.71
2022-08-16T12:15:31.205Z,27.77
2022-08-16T12:22:19.130Z,28.19
2022-08-16T12:25:31.659Z,28.40
2022-08-16T12:28:54.524Z,28.84
2022-08-16T12:32:38.067Z,29.45
2022-08-16T12:35:39.415Z,29.64
2022-08-16T12:38:55.055Z,29.85
2022-08-16T12:42:05.016Z,29.75
2022-08-16T12:45:20.639Z,29.67
2022-08-16T12:48:43.723Z,29.42
2022-08-16T12:52:01.275Z,29.12
2022-08-16T12:55:14.343Z,28.87
2022-08-16T12:58:49.577Z,28.84
2022-08-16T13:02:08.046Z,28.64
2022-08-16T13:05:23.860Z,28.37
2022-08-16T13:08:34.928Z,28.25
2022-08-16T13:11:59.801Z,28.27
2022-08-16T13:15:14.611Z,28.43
2022-08-16T13:18:34.658Z,28.56
2022-08-16T13:21:45.605Z,28.50
2022-08-16T13:25:00.108Z,28.54
2022-08-16T13:28:14.977Z,28.65
2022-08-16T13:31:27.045Z,28.62
2022-08-16T13:34:37.046Z,28.51
2022-08-16T13:37:48.028Z,28.43
2022-08-16T13:40:58.590Z,29.14
2022-08-16T13:44:13.179Z,29.87
2022-08-16T13:47:25.569Z,30.74
2022-08-16T13:50:51.322Z,31.71
2022-08-16T13:54:04.431Z,32.57
2022-08-16T13:57:15.504Z,33.44
2022-08-16T14:00:27.131Z,34.02
2022-08-16T14:03:37.392Z,34.14
2022-08-16T14:06:47.271Z,33.28
2022-08-16T14:09:57.264Z,32.46
2022-08-16T14:13:19.779Z,32.17
2022-08-16T14:16:33.918Z,32.75
2022-08-16T14:19:46.182Z,33.23
2022-08-16T14:22:56.865Z,33.54
2022-08-16T14:26:10.219Z,33.36
2022-08-16T14:29:21.343Z,33.21
2022-08-16T14:32:35.584Z,33.16
2022-08-16T14:35:50.410Z,33.04
2022-08-16T14:39:01.680Z,33.21
2022-08-16T14:42:14.486Z,33.58
2022-08-16T14:45:32.500Z,33.41
2022-08-16T14:48:49.200Z,32.67
2022-08-16T14:52:01.899Z,32.54
2022-08-16T14:55:13.113Z,32.94
2022-08-16T14:58:34.662Z,33.44
2022-08-16T15:01:57.821Z,33.83
2022-08-16T15:05:13.129Z,34.23
2022-08-16T15:08:36.410Z,34.46
2022-08-16T15:11:47.312Z,34.61
2022-08-16T15:14:59.749Z,34.67
2022-08-16T15:18:12.126Z,34.76
2022-08-16T15:21:25.865Z,34.85
2022-08-16T15:24:39.655Z,34.92
2022-08-16T15:27:55.439Z,34.89
2022-08-16T15:31:09.248Z,34.74
2022-08-16T15:34:26.136Z,34.80
2022-08-16T15:37:42.531Z,34.81
2022-08-16T15:40:58.801Z,34.89
2022-08-16T15:44:11.775Z,34.90
2022-08-16T15:47:25.724Z,34.87
2022-08-16T15:50:37.513Z,34.87
2022-08-16T15:54:12.136Z,34.83
2022-08-16T15:57:23.949Z,34.88
2022-08-16T16:00:34.027Z,34.85
2022-08-16T16:03:44.074Z,34.85
2022-08-16T16:07:00.440Z,34.91
2022-08-16T16:10:13.325Z,34.63
2022-08-16T16:13:27.032Z,34.54
2022-08-16T16:16:43.852Z,34.39
2022-08-16T16:20:03.136Z,34.48
2022-08-16T16:23:13.395Z,34.35
2022-08-16T16:26:24.903Z,34.31
2022-08-16T16:29:40.295Z,34.26
2022-08-16T16:32:50.601Z,34.29
2022-08-16T16:36:03.247Z,34.20
2022-08-16T16:39:18.013Z,34.10
2022-08-16T16:42:40.433Z,33.96
2022-08-16T16:45:54.285Z,33.82
2022-08-16T16:49:08.530Z,33.65
2022-08-16T16:52:43.542Z,33.55
2022-08-16T16:55:53.725Z,33.42
2022-08-16T16:59:08.189Z,33.23
2022-08-16T17:02:41.487Z,33.09
2022-08-16T17:06:00.110Z,33.04
2022-08-16T17:09:13.444Z,32.94
2022-08-16T17:12:25.421Z,32.79
2022-08-16T17:15:55.361Z,32.65
2022-08-16T17:19:16.362Z,32.55
2022-08-16T17:22:41.271Z,32.38
2022-08-16T17:25:54.096Z,32.22
2022-08-16T17:32:47.041Z,31.58
2022-08-16T17:35:59.017Z,31.24
2022-08-16T17:39:09.768Z,30.82
2022-08-16T17:39:28.574Z,32.01
2022-08-16T17:42:25.343Z,30.49
2022-08-16T17:45:37.886Z,30.19
2022-08-16T17:48:50.281Z,29.78
2022-08-16T17:52:00.432Z,29.35
2022-08-16T17:55:12.944Z,29.00
2022-08-16T17:58:24.641Z,28.67
2022-08-16T18:01:34.921Z,28.31
2022-08-16T18:04:50.307Z,27.91
2022-08-16T18:08:00.382Z,27.62
2022-08-16T18:11:15.078Z,27.44
2022-08-16T18:14:51.324Z,27.23
2022-08-16T18:18:02.453Z,26.97
2022-08-16T18:21:27.556Z,26.75
2022-08-16T18:24:37.873Z,26.46
2022-08-16T18:27:47.961Z,26.18
2022-08-16T18:31:01.086Z,26.00
2022-08-16T18:34:14.106Z,25.73
2022-08-16T18:37:25.730Z,25.50
2022-08-16T18:40:36.311Z,25.26
2022-08-16T18:44:22.422Z,25.09
2022-08-16T18:47:19.176Z,25.02
2022-08-16T18:51:03.502Z,24.93
2022-08-16T18:54:14.281Z,24.84
2022-08-16T18:57:26.577Z,24.73
2022-08-16T19:00:56.717Z,24.53
2022-08-16T19:04:54.963Z,24.29
2022-08-16T19:07:38.467Z,24.12
2022-08-16T19:10:53.782Z,24.05
2022-08-16T19:14:03.770Z,23.96
2022-08-16T19:17:13.969Z,23.80
2022-08-16T19:20:27.279Z,23.67
2022-08-16T19:23:38.780Z,23.57
2022-08-16T19:26:52.836Z,23.47
2022-08-16T19:30:03.465Z,23.27
2022-08-16T19:33:13.473Z,23.04
2022-08-16T19:36:35.953Z,22.86
2022-08-16T19:39:48.914Z,22.72
2022-08-16T19:43:09.878Z,22.61
2022-08-16T19:46:20.274Z,22.53
2022-08-16T19:49:32.011Z,22.45
2022-08-16T19:52:44.013Z,22.36
2022-08-16T19:55:56.175Z,22.20
2022-08-16T19:59:40.065Z,22.09
2022-08-16T20:02:46.880Z,21.92
2022-08-16T20:05:59.703Z,21.86
2022-08-16T20:09:15.616Z,21.78
2022-08-16T20:12:27.452Z,21.68
2022-08-16T20:15:42.115Z,21.57
